ADDS TAF Data INFO
IDs: Format: Raw Decoded Include METARs

Data at: 2334 UTC 24 May 2018

KTEB 242251Z 18009KT 10SM CLR 27/07 A3004 RMK AO2 SLP171 T02670067

KTEB 242320Z 2500/2606 17008KT P6SM SKC
  FM250300 VRB04KT P6SM SKC
  FM251400 23007KT P6SM SKC
  FM251700 23012G21KT P6SM FEW250


KEWR 242251Z 21011G15KT 10SM CLR 27/08 A3004 RMK AO2 SLP173 T02720078

KEWR 242320Z 2500/2606 20009KT P6SM SKC
  FM250300 23006KT P6SM SKC
  FM250800 23004KT P6SM SKC
  FM251400 24009KT P6SM SKC
  FM251700 24012G22KT P6SM FEW250
  FM260000 24010KT P6SM SCT250
  FM260400 23007KT P6SM SCT250


KMMU 242245Z 23008KT 10SM SKC 28/08 A3006

No TAF found for KMMU

KABE 242251Z 29004KT 10SM CLR 28/07 A3008 RMK AO2 SLP181 T02780067

KABE 242323Z 2500/2524 VRB03KT P6SM SKC
  FM251500 24010G18KT P6SM SKC


KAVP 242254Z 33003KT 10SM CLR 26/08 A3010 RMK AO2 SLP185 T02610083

KAVP 242320Z 2500/2524 VRB03KT P6SM SKC
  FM251500 24008KT P6SM SCT250


KFWN 242253Z AUTO 00000KT 10SM CLR 27/08 A3006 RMK AO2 SLP178 T02720078

No TAF found for KFWN

KSWF 242245Z 00000KT 20SM SKC 28/07 A3006

KSWF 242320Z 2500/2606 VRB05KT P6SM SKC
  FM251300 26007KT P6SM SKC
  FM251600 26011KT P6SM FEW250
  FM251800 27013G21KT P6SM FEW250
  FM252300 27011KT P6SM SCT250
  FM260300 26007KT P6SM SCT250 AMD NOT SKED


K12N 242254Z AUTO 00000KT 27/10 A3007 RMK AO1 SLP177 T02670100

No TAF found for K12N